Time;durP1;ratioP1;P1;durP2;ratioP2;P2;SDS_P1;SDS_P2;PMS_P1;PMS_P2;Temp;Humidity;BMP_temperature;BMP_pressure;BME280_temperature;BME280_humidity;BME280_pressure;Samples;Min_cycle;Max_cycle;Signal;HPM_P1;HPM_P2
2021/12/11 00:02:30;;;;;;;2.40;2.20;;;;;;;1.52;76.54;97940.50;5046192;28;20224;-64
2021/12/11 00:04:58;;;;;;;2.87;2.60;;;;;;;1.17;78.03;97950.94;5044643;28;20218;-64
2021/12/11 00:07:28;;;;;;;2.53;2.40;;;;;;;1.25;76.67;97949.38;5043687;28;20238;-64
2021/12/11 00:10:04;;;;;;;2.83;2.37;;;;;;;1.51;76.60;97951.97;5048455;28;20222;-65
2021/12/11 00:12:36;;;;;;;2.63;2.20;;;;;;;1.31;76.61;97953.97;5049501;28;20223;-64
2021/12/11 00:15:12;;;;;;;2.60;2.40;;;;;;;1.88;75.57;97963.94;5050312;28;20222;-64
2021/12/11 00:17:39;;;;;;;3.23;2.93;;;;;;;1.12;77.66;97963.72;5048799;28;20231;-65
2021/12/11 00:20:20;;;;;;;2.77;2.47;;;;;;;1.86;75.46;97977.25;5050359;28;20220;-65
2021/12/11 00:22:48;;;;;;;2.80;2.60;;;;;;;1.87;75.90;97986.78;5048939;28;20724;-64
2021/12/11 00:25:17;;;;;;;3.00;2.70;;;;;;;1.91;73.62;97968.88;5048701;28;20597;-65
2021/12/11 00:27:47;;;;;;;2.93;2.73;;;;;;;1.49;76.24;97982.84;5049442;28;20230;-65
2021/12/11 00:30:31;;;;;;;2.90;2.70;;;;;;;1.61;76.53;97986.84;5050025;28;20225;-65
2021/12/11 00:33:09;;;;;;;3.30;3.00;;;;;;;1.53;76.58;97994.69;5049931;28;20802;-65
2021/12/11 00:35:38;;;;;;;3.00;2.70;;;;;;;1.86;75.70;98003.53;5048850;28;20758;-65
2021/12/11 00:38:09;;;;;;;2.90;2.60;;;;;;;1.04;77.38;98008.31;5050815;28;20223;-65
2021/12/11 00:40:38;;;;;;;3.20;2.90;;;;;;;1.84;76.23;98021.28;5055112;28;20223;-65
2021/12/11 00:43:11;;;;;;;4.07;3.00;;;;;;;1.75;75.11;98012.53;5049982;28;20711;-64
2021/12/11 00:45:40;;;;;;;3.50;2.87;;;;;;;1.37;76.90;98024.31;5049055;28;20486;-65
2021/12/11 00:48:19;;;;;;;3.10;2.90;;;;;;;1.42;75.88;98023.84;5049812;28;20235;-65
2021/12/11 00:50:53;;;;;;;3.00;2.80;;;;;;;1.61;75.25;98028.88;5047746;28;20238;-65
2021/12/11 00:53:28;;;;;;;3.47;2.93;;;;;;;1.46;75.33;98035.72;5049858;28;20298;-65
2021/12/11 00:56:04;;;;;;;3.37;3.03;;;;;;;1.65;75.04;98040.75;5040832;28;20233;-65
2021/12/11 00:58:34;;;;;;;3.50;3.20;;;;;;;1.75;75.05;98051.97;5049696;28;20228;-65
2021/12/11 01:01:07;;;;;;;4.40;2.83;;;;;;;1.48;75.71;98055.59;5049763;28;20305;-65
2021/12/11 01:03:57;;;;;;;2.80;2.60;;;;;;;1.17;75.42;98050.75;5048589;28;20695;-65
2021/12/11 01:06:27;;;;;;;3.40;3.10;;;;;;;1.93;73.49;98080.81;5048565;28;20231;-65
2021/12/11 01:09:03;;;;;;;3.43;3.13;;;;;;;1.67;74.29;98077.41;5049706;28;20227;-65
2021/12/11 01:11:40;;;;;;;4.50;3.47;;;;;;;1.31;75.51;98083.53;5046660;28;20832;-65
2021/12/11 01:14:25;;;;;;;4.50;3.50;;;;;;;1.50;73.66;98079.91;5050115;28;20219;-65
2021/12/11 01:17:05;;;;;;;3.70;3.40;;;;;;;1.68;73.34;98087.72;5047672;28;20858;-65
2021/12/11 01:19:38;;;;;;;3.20;2.90;;;;;;;2.05;73.37;98118.16;5049024;28;20642;-65
2021/12/11 01:22:32;;;;;;;3.90;3.50;;;;;;;1.37;74.95;98111.81;5049733;28;20628;-65
2021/12/11 01:25:12;;;;;;;3.37;3.07;;;;;;;1.50;75.37;98132.47;5041938;28;21833;-64
2021/12/11 01:27:44;;;;;;;3.90;3.50;;;;;;;1.79;74.27;98141.88;5047849;28;20708;-65
2021/12/11 01:30:15;;;;;;;3.63;3.30;;;;;;;1.52;74.65;98140.22;5049159;28;20237;-64
2021/12/11 01:32:42;;;;;;;3.70;3.40;;;;;;;1.80;74.24;98155.84;5049749;28;20227;-65
2021/12/11 01:35:12;;;;;;;3.80;3.50;;;;;;;1.42;74.86;98153.41;5047896;28;20230;-64
2021/12/11 01:37:40;;;;;;;3.40;3.10;;;;;;;1.40;74.78;98152.75;5048367;28;20232;-66
2021/12/11 01:40:11;;;;;;;3.73;3.43;;;;;;;1.65;73.67;98160.81;5053975;28;20226;-64
2021/12/11 01:42:39;;;;;;;4.07;3.40;;;;;;;1.79;73.27;98162.91;5049058;28;20227;-65
2021/12/11 01:45:11;;;;;;;3.33;2.93;;;;;;;1.52;74.53;98161.25;5048759;28;20233;-64
2021/12/11 01:47:41;;;;;;;3.60;3.23;;;;;;;1.79;74.48;98191.00;5048624;28;20235;-65
2021/12/11 01:50:08;;;;;;;3.57;3.27;;;;;;;1.65;73.97;98187.94;5048223;28;20313;-65
2021/12/11 01:52:57;;;;;;;3.30;3.00;;;;;;;1.78;74.34;98199.88;5046499;28;20230;-64
2021/12/11 01:55:32;;;;;;;3.90;3.50;;;;;;;1.43;73.97;98181.34;5047970;28;20234;-65
2021/12/11 01:58:00;;;;;;;4.37;3.40;;;;;;;1.15;75.20;98197.16;5048749;28;20218;-65
2021/12/11 02:00:34;;;;;;;4.57;4.17;;;;;;;1.70;74.16;98217.22;5048029;28;20226;-64
2021/12/11 02:03:08;;;;;;;4.87;3.87;;;;;;;1.37;74.33;98206.41;5048361;28;20227;-65
2021/12/11 02:05:37;;;;;;;4.07;3.67;;;;;;;1.85;73.08;98227.19;5046291;28;20786;-65
2021/12/11 02:08:12;;;;;;;4.60;4.10;;;;;;;2.10;73.07;98238.69;5048782;28;20223;-67
2021/12/11 02:10:44;;;;;;;3.63;3.33;;;;;;;1.50;74.51;98227.09;5050367;28;20225;-65
2021/12/11 02:13:20;;;;;;;4.27;3.87;;;;;;;1.85;73.21;98240.34;5048418;28;20619;-64
2021/12/11 02:15:52;;;;;;;4.40;3.90;;;;;;;1.66;73.96;98236.91;5037587;28;20257;-67
2021/12/11 02:18:34;;;;;;;3.90;3.50;;;;;;;1.02;76.81;98259.72;5047662;28;20229;-65
2021/12/11 02:21:27;;;;;;;3.87;3.57;;;;;;;2.47;71.62;98280.53;5047712;28;20576;-65
2021/12/11 02:24:03;;;;;;;4.67;4.13;;;;;;;1.90;73.25;98273.09;5031836;28;20564;-65
2021/12/11 02:26:35;;;;;;;8.17;5.50;;;;;;;1.61;73.72;98272.50;5063893;22;20237;-62
2021/12/11 02:29:22;;;;;;;8.60;5.20;;;;;;;2.05;73.23;98286.50;5026814;28;20243;-62
2021/12/11 02:31:58;;;;;;;6.50;5.50;;;;;;;2.82;69.84;98296.38;5034082;28;20548;-62
2021/12/11 02:34:34;;;;;;;6.27;5.17;;;;;;;2.34;71.30;98287.19;5034937;28;20215;-62
2021/12/11 02:37:09;;;;;;;5.50;4.93;;;;;;;2.31;71.40;98289.16;5044208;28;21521;-62
2021/12/11 02:39:53;;;;;;;8.97;6.63;;;;;;;2.79;69.43;98297.50;5025780;28;20716;-64
2021/12/11 02:42:38;;;;;;;13.17;9.70;;;;;;;1.93;72.73;98306.97;5027755;28;20227;-62
2021/12/11 02:45:16;;;;;;;10.60;9.20;;;;;;;1.41;73.76;98301.50;5025636;28;21778;-62
2021/12/11 02:47:50;;;;;;;8.60;6.57;;;;;;;1.43;73.98;98311.91;5047090;28;20231;-63
2021/12/11 02:50:29;;;;;;;5.80;5.20;;;;;;;1.60;74.35;98323.41;5047191;28;20229;-62
2021/12/11 02:53:13;;;;;;;5.90;5.27;;;;;;;1.86;73.78;98334.03;5046569;28;20252;-62
2021/12/11 02:55:59;;;;;;;6.50;5.20;;;;;;;2.24;72.80;98332.88;5045882;28;21633;-63
2021/12/11 02:58:29;;;;;;;5.37;4.63;;;;;;;1.84;72.96;98325.47;5046692;28;20226;-63
2021/12/11 03:01:00;;;;;;;6.67;5.60;;;;;;;0.90;75.06;98323.94;5047112;28;20245;-63
2021/12/11 03:03:34;;;;;;;6.97;5.83;;;;;;;1.27;75.41;98347.50;5045626;28;21041;-62
2021/12/11 03:06:10;;;;;;;8.20;6.40;;;;;;;1.07;75.57;98343.34;5046482;28;20226;-63
2021/12/11 03:08:38;;;;;;;7.43;5.90;;;;;;;1.58;74.91;98368.25;5046289;28;20235;-62
2021/12/11 03:11:09;;;;;;;6.57;5.80;;;;;;;0.98;74.35;98345.84;5046487;28;20233;-62
2021/12/11 03:13:38;;;;;;;7.57;6.53;;;;;;;0.75;76.25;98365.56;5029603;28;20607;-62
2021/12/11 03:16:09;;;;;;;7.87;6.20;;;;;;;1.14;75.38;98384.63;5045666;28;20222;-63
2021/12/11 03:18:37;;;;;;;7.97;6.97;;;;;;;1.12;75.72;98389.19;5041746;28;20224;-62
2021/12/11 03:21:04;;;;;;;7.23;6.13;;;;;;;1.49;73.64;98377.84;5045373;28;20284;-62
2021/12/11 03:23:31;;;;;;;6.80;5.43;;;;;;;0.89;74.15;98366.88;5046003;28;20229;-64
2021/12/11 03:25:58;;;;;;;7.13;6.23;;;;;;;1.36;74.69;98398.34;5045686;28;20226;-64
2021/12/11 03:28:25;;;;;;;8.20;6.57;;;;;;;1.43;73.65;98403.88;5046470;28;20660;-61
2021/12/11 03:30:58;;;;;;;8.23;6.53;;;;;;;1.53;73.36;98400.25;5045908;28;21575;-64
2021/12/11 03:33:31;;;;;;;7.70;6.80;;;;;;;0.87;74.00;98395.09;5046208;28;20602;-64
2021/12/11 03:35:58;;;;;;;9.03;6.97;;;;;;;1.53;74.06;98415.16;5045504;28;20539;-64
2021/12/11 03:38:26;;;;;;;7.93;7.03;;;;;;;1.11;74.09;98411.19;5046633;28;20253;-65
2021/12/11 03:40:54;;;;;;;8.20;7.30;;;;;;;1.48;73.16;98426.16;5045690;28;20257;-64
2021/12/11 03:43:23;;;;;;;8.47;7.57;;;;;;;1.12;73.57;98422.53;5039430;28;20745;-63
2021/12/11 03:45:53;;;;;;;7.70;6.90;;;;;;;1.59;73.54;98450.56;5040605;28;20225;-63
2021/12/11 03:48:26;;;;;;;10.10;7.33;;;;;;;1.50;73.64;98447.84;5050753;28;20230;-64
2021/12/11 03:50:54;;;;;;;9.07;8.13;;;;;;;1.27;73.67;98441.28;5049081;28;20619;-63
2021/12/11 03:53:21;;;;;;;9.87;7.00;;;;;;;0.77;75.58;98458.94;5049617;28;20228;-64
2021/12/11 03:55:53;;;;;;;7.67;6.87;;;;;;;0.77;76.08;98466.81;5049290;28;20686;-63
2021/12/11 03:58:20;;;;;;;8.47;7.00;;;;;;;0.78;76.24;98478.97;5050504;28;20218;-64
2021/12/11 04:00:56;;;;;;;8.90;7.10;;;;;;;0.41;77.42;98479.69;5049604;28;20233;-64
2021/12/11 04:03:28;;;;;;;8.30;7.17;;;;;;;0.70;76.06;98476.22;5048741;28;20235;-64
2021/12/11 04:05:59;;;;;;;8.20;6.97;;;;;;;0.67;77.93;98491.41;5049066;28;20236;-64
2021/12/11 04:08:30;;;;;;;9.03;7.47;;;;;;;0.85;77.95;98495.00;5049037;28;20223;-64
2021/12/11 04:10:57;;;;;;;9.17;7.70;;;;;;;1.27;74.27;98480.69;5050546;28;20744;-64
2021/12/11 04:13:25;;;;;;;9.87;7.97;;;;;;;1.14;74.72;98488.88;5049714;28;20231;-64
2021/12/11 04:15:54;;;;;;;9.27;7.90;;;;;;;0.85;76.46;98502.06;5047738;28;20245;-64
2021/12/11 04:18:21;;;;;;;11.20;8.23;;;;;;;1.28;74.61;98496.31;5048635;28;20223;-63
2021/12/11 04:20:49;;;;;;;9.07;7.67;;;;;;;1.38;74.18;98504.97;5049203;28;20237;-64
2021/12/11 04:23:19;;;;;;;9.27;7.93;;;;;;;1.24;74.17;98496.72;5049725;28;20223;-63
2021/12/11 04:25:50;;;;;;;9.47;8.33;;;;;;;1.74;73.59;98522.72;5048218;28;20223;-63
2021/12/11 04:28:21;;;;;;;8.77;7.70;;;;;;;1.84;73.24;98523.50;5050093;28;20227;-64
2021/12/11 04:30:50;;;;;;;9.17;7.73;;;;;;;1.20;74.31;98525.06;5039961;28;20698;-64
2021/12/11 04:33:18;;;;;;;9.30;8.10;;;;;;;1.29;73.54;98520.75;5049312;28;20233;-63
2021/12/11 04:35:45;;;;;;;7.73;6.90;;;;;;;1.32;73.80;98529.19;5048619;28;20226;-64
2021/12/11 04:38:14;;;;;;;8.87;7.83;;;;;;;1.50;74.41;98549.50;5049474;28;20230;-64
2021/12/11 04:40:49;;;;;;;9.03;8.10;;;;;;;0.70;75.48;98539.22;5048760;28;20226;-63
2021/12/11 04:43:20;;;;;;;8.63;7.43;;;;;;;0.58;76.44;98556.91;5048501;28;20219;-64
2021/12/11 04:45:54;;;;;;;8.53;7.30;;;;;;;1.31;74.19;98559.06;5048278;28;20220;-63
2021/12/11 04:48:43;;;;;;;9.90;8.60;;;;;;;1.98;72.17;98566.91;5045910;28;20248;-63
2021/12/11 04:54:11;;;;;;;9.00;8.07;;;;;;;2.19;71.03;98563.19;5048449;28;20227;-63
2021/12/11 05:09:56;;;;;;;9.47;8.47;;;;;;;2.03;71.38;98608.56;5038427;28;20231;-63
2021/12/11 05:14:52;;;;;;;8.93;7.93;;;;;;;1.81;72.67;98620.25;5047654;28;20230;-64
2021/12/11 05:17:20;;;;;;;10.23;8.73;;;;;;;1.53;73.84;98625.44;5047384;28;20241;-64
2021/12/11 05:19:52;;;;;;;10.30;9.13;;;;;;;1.06;74.29;98618.28;5048880;28;20512;-64
2021/12/11 05:22:19;;;;;;;9.70;8.70;;;;;;;1.31;74.55;98631.78;5049258;28;20241;-63
2021/12/11 05:24:51;;;;;;;9.97;8.50;;;;;;;1.50;73.61;98634.44;5047915;28;20238;-64
2021/12/11 05:27:19;;;;;;;9.83;8.83;;;;;;;1.40;74.15;98638.84;5047596;28;20245;-64
2021/12/11 05:29:46;;;;;;;10.30;9.20;;;;;;;1.49;73.85;98651.16;5047943;28;20224;-63
2021/12/11 05:32:16;;;;;;;12.60;9.90;;;;;;;1.13;74.33;98648.28;5048528;28;20590;-64
2021/12/11 05:34:43;;;;;;;11.00;9.80;;;;;;;2.04;72.42;98662.81;5047885;28;20216;-63
2021/12/11 05:37:11;;;;;;;11.17;9.57;;;;;;;1.42;73.55;98649.22;5047016;28;20240;-63
2021/12/11 05:39:39;;;;;;;11.07;9.37;;;;;;;1.79;71.98;98661.66;5047602;28;20231;-64
2021/12/11 05:42:07;;;;;;;10.70;8.80;;;;;;;1.61;72.77;98661.53;5047296;28;20219;-64
2021/12/11 05:44:34;;;;;;;13.23;10.40;;;;;;;1.16;73.90;98662.91;5048086;28;20246;-64
2021/12/11 05:47:03;;;;;;;11.03;9.43;;;;;;;1.44;72.97;98674.41;5043654;28;20256;-64
2021/12/11 05:49:30;;;;;;;11.93;9.93;;;;;;;1.72;73.22;98687.69;5054625;28;20738;-64
2021/12/11 05:51:58;;;;;;;11.30;9.57;;;;;;;2.17;71.54;98694.06;5068384;28;20226;-64
2021/12/11 05:54:27;;;;;;;10.67;9.27;;;;;;;2.03;71.96;98700.63;5067617;28;20432;-64
2021/12/11 05:57:00;;;;;;;11.07;9.70;;;;;;;2.00;71.12;98688.56;5053725;28;20832;-65
2021/12/11 05:59:28;;;;;;;11.63;10.17;;;;;;;1.21;74.69;98705.34;5047094;28;20227;-65
2021/12/11 06:02:20;;;;;;;10.67;9.30;;;;;;;1.18;74.05;98709.09;5048507;28;20216;-64
2021/12/11 06:04:51;;;;;;;11.97;9.67;;;;;;;1.75;72.73;98716.28;5046712;28;20235;-64
2021/12/11 06:07:20;;;;;;;11.63;9.70;;;;;;;1.81;72.18;98712.28;5043434;28;20235;-63
2021/12/11 06:09:51;;;;;;;14.97;12.10;;;;;;;1.48;72.10;98711.75;5039382;28;20229;-64
2021/12/11 06:12:20;;;;;;;12.43;11.13;;;;;;;1.77;72.92;98735.41;5047648;28;20225;-64
2021/12/11 06:14:50;;;;;;;12.37;10.87;;;;;;;1.76;72.65;98741.63;5047515;28;20227;-64
2021/12/11 06:17:23;;;;;;;13.60;11.13;;;;;;;1.35;73.34;98741.75;5045877;28;20231;-64
2021/12/11 06:19:52;;;;;;;12.17;10.57;;;;;;;2.15;71.70;98753.91;5047532;28;20223;-63
2021/12/11 06:22:22;;;;;;;14.23;12.20;;;;;;;2.03;71.86;98742.72;5047052;28;20223;-64
2021/12/11 06:24:49;;;;;;;12.93;10.87;;;;;;;1.86;72.67;98749.53;5046918;28;20238;-64
2021/12/11 06:27:16;;;;;;;14.37;10.50;;;;;;;1.76;72.78;98757.41;5034585;28;20232;-63
2021/12/11 06:29:43;;;;;;;12.77;11.40;;;;;;;1.49;73.51;98750.22;5025635;28;20234;-60
2021/12/11 06:32:10;;;;;;;14.17;10.93;;;;;;;1.51;73.19;98754.34;5047613;28;20286;-63
2021/12/11 06:34:38;;;;;;;13.07;10.97;;;;;;;2.07;71.52;98755.44;5047158;28;20226;-64
2021/12/11 06:37:07;;;;;;;12.73;10.27;;;;;;;2.17;71.72;98763.28;5045485;28;20235;-63
2021/12/11 06:39:36;;;;;;;12.20;10.90;;;;;;;1.20;73.45;98757.06;5047268;28;20227;-63
2021/12/11 06:42:13;;;;;;;12.60;10.67;;;;;;;2.25;71.71;98789.72;5047413;28;20224;-63
2021/12/11 06:44:40;;;;;;;13.57;10.90;;;;;;;2.05;72.16;98794.19;5047151;28;20227;-63
2021/12/11 06:47:09;;;;;;;13.77;11.70;;;;;;;1.87;72.90;98795.88;5046438;28;20224;-64
2021/12/11 06:49:41;;;;;;;14.37;11.97;;;;;;;1.99;71.74;98801.81;5039235;28;20235;-64
2021/12/11 06:52:27;;;;;;;13.60;11.63;;;;;;;1.70;73.29;98813.16;5047282;28;20229;-64
2021/12/11 06:54:54;;;;;;;15.30;12.03;;;;;;;1.80;72.38;98810.53;5024287;28;20887;-64
2021/12/11 06:57:21;;;;;;;13.97;11.60;;;;;;;1.81;73.36;98823.56;5023913;28;20239;-63
2021/12/11 06:59:48;;;;;;;19.33;15.10;;;;;;;1.88;71.80;98822.03;5021430;28;20220;-64
2021/12/11 07:02:17;;;;;;;16.00;13.03;;;;;;;2.04;72.32;98836.41;5046666;28;20598;-63
2021/12/11 07:04:45;;;;;;;16.43;13.90;;;;;;;2.53;70.85;98847.72;5046825;28;20215;-64
2021/12/11 07:07:18;;;;;;;15.87;12.83;;;;;;;2.06;70.77;98831.88;5042385;28;20237;-64
2021/12/11 07:09:45;;;;;;;16.47;13.67;;;;;;;1.35;74.82;98859.16;5041100;28;20224;-63
2021/12/11 07:12:12;;;;;;;14.70;13.10;;;;;;;2.07;72.54;98871.19;5047240;28;20713;-64
2021/12/11 07:14:39;;;;;;;15.23;13.10;;;;;;;1.88;72.20;98873.81;5046943;28;20223;-64
2021/12/11 07:17:06;;;;;;;15.30;13.37;;;;;;;1.98;73.17;98884.34;5042957;28;20230;-64
2021/12/11 07:19:33;;;;;;;18.03;14.93;;;;;;;2.37;71.25;98885.16;5048822;28;20234;-63
2021/12/11 07:22:00;;;;;;;18.00;14.93;;;;;;;1.85;72.44;98877.53;5051340;28;20583;-64
2021/12/11 07:24:33;;;;;;;17.33;13.37;;;;;;;2.25;71.25;98886.28;5041524;28;20598;-62
2021/12/11 07:27:03;;;;;;;14.90;12.73;;;;;;;1.82;72.91;98892.75;5054259;28;20702;-63
2021/12/11 07:29:32;;;;;;;16.07;13.57;;;;;;;2.62;70.36;98907.41;5050034;28;20606;-63
2021/12/11 07:32:00;;;;;;;16.33;13.50;;;;;;;2.19;71.46;98905.25;5050827;28;20223;-63
2021/12/11 07:34:27;;;;;;;16.43;13.33;;;;;;;2.56;69.98;98908.00;5050208;28;20219;-63
2021/12/11 07:36:55;;;;;;;15.00;12.90;;;;;;;2.16;71.17;98910.78;5050180;28;20227;-63
2021/12/11 07:39:24;;;;;;;16.50;13.50;;;;;;;2.78;69.73;98927.06;5050196;28;20250;-63
2021/12/11 07:41:53;;;;;;;14.77;12.17;;;;;;;2.33;71.09;98923.25;5043905;28;20893;-63
2021/12/11 07:44:21;;;;;;;15.30;12.93;;;;;;;2.36;71.04;98927.41;5049483;28;20229;-63
2021/12/11 07:46:50;;;;;;;15.87;13.30;;;;;;;1.77;72.33;98931.78;5048902;28;20228;-63
2021/12/11 07:49:19;;;;;;;15.67;13.93;;;;;;;1.64;73.52;98947.81;5050533;28;20235;-64
2021/12/11 07:51:48;;;;;;;15.07;13.40;;;;;;;2.62;71.09;98967.97;5050423;28;20603;-63
2021/12/11 07:54:15;;;;;;;17.23;14.43;;;;;;;2.39;70.31;98949.00;5051005;28;20725;-63
2021/12/11 07:56:42;;;;;;;18.80;14.70;;;;;;;2.27;71.10;98966.72;5048941;28;20329;-63
2021/12/11 07:59:10;;;;;;;19.63;14.30;;;;;;;2.39;71.28;98980.59;5049487;28;20228;-63
2021/12/11 08:01:41;;;;;;;15.30;12.77;;;;;;;2.22;72.08;98995.25;5050433;28;20597;-63
2021/12/11 08:04:10;;;;;;;13.80;12.00;;;;;;;2.88;69.68;99001.63;5050799;28;20216;-63
2021/12/11 08:06:38;;;;;;;14.57;11.60;;;;;;;2.74;69.95;98994.19;5048919;28;20241;-63
2021/12/11 08:09:07;;;;;;;16.00;12.43;;;;;;;0.76;73.74;98977.09;5049657;28;20237;-63
2021/12/11 08:11:35;;;;;;;14.27;12.27;;;;;;;2.13;73.04;99012.69;5059801;28;20231;-62
2021/12/11 08:14:03;;;;;;;14.30;11.77;;;;;;;2.69;70.42;99008.59;5070257;28;20642;-63
2021/12/11 08:16:35;;;;;;;15.90;12.53;;;;;;;2.92;70.04;99018.03;5069126;28;20226;-63
2021/12/11 08:19:04;;;;;;;16.47;12.83;;;;;;;2.65;71.01;99009.03;5062587;28;20228;-63
2021/12/11 08:21:31;;;;;;;14.63;12.67;;;;;;;3.18;69.29;99023.50;5036692;28;20810;-63
2021/12/11 08:24:04;;;;;;;18.47;13.30;;;;;;;2.98;69.03;99017.44;5029965;28;20242;-63
2021/12/11 08:26:34;;;;;;;16.83;13.67;;;;;;;2.95;69.77;99022.97;5024023;28;20229;-63
2021/12/11 08:29:08;;;;;;;18.57;14.17;;;;;;;2.55;71.04;99018.72;5042391;22;20246;-61
2021/12/11 08:31:36;;;;;;;16.67;13.23;;;;;;;2.03;71.14;99009.22;5026721;28;20244;-61
2021/12/11 08:34:03;;;;;;;15.90;13.83;;;;;;;1.82;72.84;99018.97;5029841;28;20227;-61
2021/12/11 08:36:30;;;;;;;18.37;14.07;;;;;;;3.06;70.08;99039.47;5029214;28;20228;-61
2021/12/11 08:38:59;;;;;;;21.10;15.13;;;;;;;2.38;71.08;99015.78;5025781;28;20608;-61
2021/12/11 08:41:28;;;;;;;20.73;15.73;;;;;;;2.75;71.73;99036.19;5027252;28;20231;-60
2021/12/11 08:44:03;;;;;;;16.87;13.00;;;;;;;3.18;69.72;99049.88;5030306;28;20223;-61
2021/12/11 08:46:33;;;;;;;21.13;17.23;;;;;;;2.91;71.33;99040.88;5029880;28;20598;-61
2021/12/11 08:49:06;;;;;;;24.63;18.93;;;;;;;3.04;71.45;99062.50;5028156;28;20235;-61
2021/12/11 08:51:51;;;;;;;17.70;14.50;;;;;;;2.66;71.41;99043.13;5027700;28;21185;-62
2021/12/11 08:54:20;;;;;;;17.67;13.97;;;;;;;3.06;71.96;99070.28;5030623;28;20220;-61
2021/12/11 08:56:48;;;;;;;16.53;13.70;;;;;;;2.90;70.56;99046.28;5028583;28;20239;-60
2021/12/11 08:59:19;;;;;;;18.03;14.80;;;;;;;2.83;71.37;99067.06;5020310;28;20220;-63
2021/12/11 09:01:55;;;;;;;15.93;13.53;;;;;;;2.72;71.86;99069.88;5028930;28;20228;-60
2021/12/11 09:04:43;;;;;;;16.73;13.77;;;;;;;2.32;71.49;99061.06;5028909;28;20220;-61
2021/12/11 09:07:18;;;;;;;16.07;13.07;;;;;;;2.60;71.45;99077.88;5025092;28;21445;-61
2021/12/11 09:09:54;;;;;;;14.53;12.93;;;;;;;2.36;72.91;99101.13;5032053;28;20607;-61
2021/12/11 09:12:26;;;;;;;16.87;13.70;;;;;;;2.53;71.19;99092.56;5028896;28;20224;-61
2021/12/11 09:14:57;;;;;;;15.67;13.83;;;;;;;2.45;71.20;99102.94;5028627;28;20687;-61
2021/12/11 09:17:33;;;;;;;15.93;13.10;;;;;;;2.24;72.84;99108.28;5028378;28;20240;-60
2021/12/11 09:20:04;;;;;;;17.40;13.33;;;;;;;2.55;70.81;99114.34;5029016;28;20232;-61
2021/12/11 09:22:39;;;;;;;17.50;12.43;;;;;;;2.68;70.14;99112.28;5028510;28;20695;-60
2021/12/11 09:25:18;;;;;;;16.07;12.90;;;;;;;3.06;68.80;99126.44;5029171;28;20223;-61
2021/12/11 09:27:53;;;;;;;13.97;11.47;;;;;;;1.59;72.83;99116.47;5029168;28;20224;-61
2021/12/11 09:30:24;;;;;;;14.83;11.30;;;;;;;2.30;70.31;99124.38;5027926;28;20614;-60
2021/12/11 09:32:53;;;;;;;14.17;11.50;;;;;;;1.93;72.57;99129.38;5028812;28;20225;-60
2021/12/11 09:35:43;;;;;;;14.90;11.37;;;;;;;1.63;71.98;99125.75;5027988;28;20611;-61
2021/12/11 09:38:19;;;;;;;12.50;10.20;;;;;;;1.23;74.19;99155.34;5025475;28;20225;-61
2021/12/11 09:40:55;;;;;;;14.23;10.67;;;;;;;2.43;70.65;99168.06;5021932;28;20220;-61
2021/12/11 09:43:34;;;;;;;12.87;10.80;;;;;;;1.64;73.69;99158.97;5026779;28;20220;-60
2021/12/11 09:46:05;;;;;;;14.03;10.73;;;;;;;1.75;73.30;99173.81;5022974;28;20224;-60
2021/12/11 09:48:33;;;;;;;11.87;10.23;;;;;;;2.53;70.81;99165.44;5025034;28;20259;-61
2021/12/11 09:51:08;;;;;;;13.53;11.27;;;;;;;2.12;71.12;99160.19;5028845;28;20233;-62
2021/12/11 09:53:45;;;;;;;11.00;9.07;;;;;;;1.80;70.69;99165.56;5028693;28;20635;-60
2021/12/11 09:56:19;;;;;;;13.10;9.40;;;;;;;2.41;68.17;99172.63;5027466;28;20688;-61
2021/12/11 09:58:47;;;;;;;10.87;9.40;;;;;;;2.46;69.21;99180.94;5027367;28;20224;-61
2021/12/11 10:01:42;;;;;;;12.83;10.10;;;;;;;2.18;69.97;99172.81;5027907;28;20254;-61
2021/12/11 10:04:17;;;;;;;11.37;9.37;;;;;;;2.53;68.54;99181.25;5026732;28;20224;-61
2021/12/11 10:09:29;;;;;;;14.30;11.13;;;;;;;1.95;69.89;99185.28;5030406;28;20235;-61
2021/12/11 10:12:10;;;;;;;15.70;11.40;;;;;;;2.37;68.31;99190.47;5028015;28;20452;-61
2021/12/11 10:14:51;;;;;;;14.47;11.50;;;;;;;1.85;71.44;99187.88;5028044;28;20228;-61
2021/12/11 10:17:56;;;;;;;12.10;10.43;;;;;;;2.25;69.75;99189.75;5027498;28;20232;-61
2021/12/11 10:20:28;;;;;;;11.73;9.93;;;;;;;2.02;70.20;99194.34;5027341;28;20224;-60
2021/12/11 10:22:58;;;;;;;11.50;10.20;;;;;;;2.12;69.54;99187.34;5027624;28;20232;-61
2021/12/11 10:25:30;;;;;;;13.63;10.23;;;;;;;2.24;70.76;99198.63;5027826;28;20722;-61
2021/12/11 10:28:01;;;;;;;15.47;11.33;;;;;;;1.86;70.94;99191.34;5028325;28;20217;-60
2021/12/11 10:30:34;;;;;;;12.13;10.13;;;;;;;2.76;68.94;99216.09;5026399;28;20223;-60
2021/12/11 10:33:01;;;;;;;12.53;9.90;;;;;;;2.27;69.18;99200.97;5028558;28;20239;-61
2021/12/11 10:35:33;;;;;;;10.97;9.40;;;;;;;2.42;69.54;99205.88;5027187;28;20612;-60
2021/12/11 10:38:03;;;;;;;13.30;10.90;;;;;;;2.01;71.05;99205.84;5027753;28;20220;-61
2021/12/11 10:40:43;;;;;;;13.60;10.73;;;;;;;1.80;71.92;99212.91;5032057;28;20216;-61
2021/12/11 10:43:20;;;;;;;11.80;9.70;;;;;;;2.13;71.52;99214.47;5027710;28;20223;-60
2021/12/11 10:45:49;;;;;;;12.17;9.63;;;;;;;2.75;69.34;99232.88;5027657;28;20242;-61
2021/12/11 10:48:23;;;;;;;13.43;10.50;;;;;;;2.96;67.87;99224.91;5026335;28;20743;-60
2021/12/11 10:51:18;;;;;;;13.13;11.07;;;;;;;2.85;67.94;99217.94;5027541;28;20621;-60
2021/12/11 10:53:48;;;;;;;12.97;10.73;;;;;;;3.22;67.90;99235.78;5017658;28;21303;-60
2021/12/11 10:56:19;;;;;;;11.60;9.27;;;;;;;2.34;68.96;99218.88;5025469;28;20608;-60
2021/12/11 10:58:55;;;;;;;11.80;9.33;;;;;;;2.71;69.81;99236.75;5027380;28;20231;-61
2021/12/11 11:03:48;;;;;;;8.47;7.57;;;;;;;2.15;69.84;99267.81;5084613;27;20937;-62
2021/12/11 11:06:16;;;;;;;8.43;7.40;;;;;;;2.13;68.35;99246.06;5065212;28;20215;-62
2021/12/11 11:08:44;;;;;;;8.67;7.77;;;;;;;2.17;69.30;99267.69;5063440;28;20225;-63
2021/12/11 11:11:16;;;;;;;10.73;8.53;;;;;;;2.24;68.07;99256.50;5071777;28;20602;-62
2021/12/11 11:13:45;;;;;;;8.07;6.87;;;;;;;1.80;69.44;99261.06;5074648;28;20581;-62
2021/12/11 11:16:15;;;;;;;8.23;6.70;;;;;;;2.38;67.59;99273.75;5080294;28;20214;-62
2021/12/11 11:18:42;;;;;;;11.80;8.13;;;;;;;2.36;66.68;99274.84;5084561;28;20237;-63
2021/12/11 11:21:14;;;;;;;8.57;7.00;;;;;;;2.63;66.21;99271.63;5084190;28;20233;-63
2021/12/11 11:23:43;;;;;;;9.73;8.30;;;;;;;1.88;67.16;99252.53;5083442;28;20238;-63
2021/12/11 11:26:17;;;;;;;12.23;9.67;;;;;;;2.20;70.40;99278.78;5083963;28;20221;-63
2021/12/11 11:28:44;;;;;;;14.27;10.37;;;;;;;2.76;68.23;99287.22;5082778;28;20513;-63
2021/12/11 11:31:16;;;;;;;11.70;9.37;;;;;;;2.47;69.16;99277.41;5084233;28;20732;-62
2021/12/11 11:33:44;;;;;;;11.37;9.33;;;;;;;2.46;67.77;99273.09;5080921;28;20215;-62
2021/12/11 11:36:15;;;;;;;13.10;11.20;;;;;;;2.39;68.26;99269.31;5063886;28;20229;-62
2021/12/11 11:38:47;;;;;;;14.33;10.20;;;;;;;2.67;68.36;99283.59;5083668;28;20214;-61
2021/12/11 11:41:22;;;;;;;12.83;10.57;;;;;;;2.37;69.06;99272.09;5083856;28;20223;-62
2021/12/11 11:43:50;;;;;;;10.60;8.07;;;;;;;2.21;68.06;99280.44;5085003;28;20226;-62
2021/12/11 11:46:17;;;;;;;12.10;10.60;;;;;;;2.78;67.45;99290.56;5080960;28;20215;-62
2021/12/11 11:48:48;;;;;;;10.83;8.93;;;;;;;2.45;68.30;99285.44;5068857;28;20227;-62
2021/12/11 11:51:21;;;;;;;7.60;6.80;;;;;;;2.87;64.68;99295.03;5061980;28;20227;-61
2021/12/11 11:53:49;;;;;;;9.73;7.77;;;;;;;2.96;65.35;99293.41;5080580;28;20218;-62
2021/12/11 11:56:19;;;;;;;7.80;7.00;;;;;;;2.61;64.48;99282.31;5083188;28;20215;-62
2021/12/11 11:58:46;;;;;;;9.00;8.10;;;;;;;2.48;66.15;99295.69;5074670;28;20610;-62
2021/12/11 12:01:19;;;;;;;10.50;8.77;;;;;;;2.61;65.69;99290.22;5096736;28;20732;-62
2021/12/11 12:03:46;;;;;;;11.80;8.00;;;;;;;2.83;65.62;99309.44;5082115;28;20725;-62
2021/12/11 12:06:22;;;;;;;9.70;7.57;;;;;;;2.31;66.73;99297.13;5081455;28;20756;-62
2021/12/11 12:08:51;;;;;;;8.73;6.80;;;;;;;1.93;66.59;99284.56;5080875;28;20839;-62
2021/12/11 12:11:19;;;;;;;7.30;6.50;;;;;;;2.45;65.19;99303.84;5078588;28;20215;-59
2021/12/11 12:13:47;;;;;;;8.27;7.43;;;;;;;2.85;64.68;99308.34;5066404;28;20230;-62
2021/12/11 12:16:29;;;;;;;9.17;8.13;;;;;;;2.25;66.02;99300.28;5069542;28;20225;-63
2021/12/11 12:18:57;;;;;;;9.97;8.17;;;;;;;2.25;67.41;99304.72;5067517;28;20660;-63
2021/12/11 12:21:24;;;;;;;9.87;8.87;;;;;;;2.39;65.95;99306.16;5066742;28;20257;-61